createdAt,value
2017-08-18T00:00:42.252Z,7.77
2017-08-18T00:03:08.651Z,7.97
2017-08-18T00:05:35.846Z,8.50
2017-08-18T00:08:02.263Z,8.33
2017-08-18T00:10:28.719Z,13.13
2017-08-18T00:12:55.111Z,8.03
2017-08-18T00:15:21.503Z,8.70
2017-08-18T00:17:47.874Z,8.17
2017-08-18T00:20:15.066Z,7.33
2017-08-18T00:22:41.434Z,7.93
2017-08-18T00:25:07.849Z,9.07
2017-08-18T00:27:35.020Z,8.50
2017-08-18T00:30:01.513Z,7.23
2017-08-18T00:32:27.912Z,8.60
2017-08-18T00:34:54.315Z,8.37
2017-08-18T00:37:20.736Z,8.50
2017-08-18T00:39:47.116Z,8.20
2017-08-18T00:42:13.592Z,8.97
2017-08-18T00:44:39.995Z,9.50
2017-08-18T00:47:06.355Z,8.77
2017-08-18T00:49:32.796Z,8.20
2017-08-18T00:51:59.200Z,7.70
2017-08-18T00:54:25.619Z,7.50
2017-08-18T00:56:52.011Z,9.10
2017-08-18T00:59:19.188Z,8.57
2017-08-18T01:01:45.688Z,9.50
2017-08-18T01:04:12.099Z,8.60
2017-08-18T01:06:38.510Z,10.23
2017-08-18T01:09:04.907Z,8.43
2017-08-18T01:11:32.127Z,9.80
2017-08-18T01:13:58.535Z,7.37
2017-08-18T01:16:24.930Z,8.97
2017-08-18T01:18:51.312Z,7.90
2017-08-18T01:21:17.782Z,7.90
2017-08-18T01:23:44.902Z,9.17
2017-08-18T01:26:11.332Z,7.53
2017-08-18T01:28:37.725Z,9.23
2017-08-18T01:31:04.163Z,8.77
2017-08-18T01:33:30.560Z,7.53
2017-08-18T01:35:57.711Z,8.20
2017-08-18T01:38:24.822Z,8.60
2017-08-18T01:40:51.259Z,8.37
2017-08-18T01:43:17.632Z,8.73
2017-08-18T01:45:44.755Z,8.13
2017-08-18T01:48:11.151Z,8.20
2017-08-18T01:50:37.575Z,8.27
2017-08-18T01:53:03.983Z,9.40
2017-08-18T01:55:31.115Z,8.50
2017-08-18T01:57:58.266Z,7.33
2017-08-18T02:00:25.487Z,7.90
2017-08-18T02:02:51.859Z,10.20
2017-08-18T02:05:18.975Z,7.17
2017-08-18T02:07:45.388Z,8.37
2017-08-18T02:10:11.811Z,8.23
2017-08-18T02:12:38.195Z,7.43
2017-08-18T02:15:05.340Z,8.10
2017-08-18T02:17:31.731Z,8.23
2017-08-18T02:19:58.150Z,8.30
2017-08-18T02:22:24.594Z,8.67
2017-08-18T02:24:50.991Z,8.60
2017-08-18T02:27:18.103Z,9.03
2017-08-18T02:29:44.528Z,8.40
2017-08-18T02:32:10.912Z,9.50
2017-08-18T02:34:37.348Z,8.70
2017-08-18T02:37:03.750Z,9.57
2017-08-18T02:39:30.131Z,8.60
2017-08-18T02:41:56.551Z,9.30
2017-08-18T02:44:22.922Z,8.63
2017-08-18T02:46:49.592Z,9.17
2017-08-18T02:49:16.068Z,8.70
2017-08-18T02:51:42.511Z,8.83
2017-08-18T02:54:08.935Z,8.70
2017-08-18T02:56:35.322Z,7.40
2017-08-18T02:59:02.548Z,8.90
2017-08-18T03:01:29.043Z,7.40
2017-08-18T03:03:55.411Z,8.70
2017-08-18T03:06:22.675Z,8.60
2017-08-18T03:08:49.064Z,8.77
2017-08-18T03:11:15.567Z,8.10
2017-08-18T03:13:41.990Z,8.60
2017-08-18T03:16:09.136Z,9.53
2017-08-18T03:18:36.306Z,8.40
2017-08-18T03:21:02.782Z,10.00
2017-08-18T03:23:29.156Z,9.00
2017-08-18T03:25:56.263Z,9.23
2017-08-18T03:28:22.655Z,8.77
2017-08-18T03:30:49.109Z,8.30
2017-08-18T03:33:15.531Z,9.47
2017-08-18T03:35:41.927Z,8.90
2017-08-18T03:38:08.336Z,8.87
2017-08-18T03:40:34.768Z,8.50
2017-08-18T03:43:01.147Z,9.30
2017-08-18T03:45:28.320Z,9.07
2017-08-18T03:47:54.749Z,8.93
2017-08-18T03:50:21.215Z,11.10
2017-08-18T03:52:47.629Z,8.77
2017-08-18T03:55:14.021Z,8.80
2017-08-18T03:57:40.427Z,8.40
2017-08-18T04:00:06.842Z,8.80
2017-08-18T04:02:33.220Z,8.50
2017-08-18T04:05:00.364Z,12.07
2017-08-18T04:07:27.517Z,8.87
2017-08-18T04:09:53.991Z,9.97
2017-08-18T04:12:20.396Z,10.20
2017-08-18T04:14:46.783Z,9.83
2017-08-18T04:17:13.247Z,9.70
2017-08-18T04:19:39.783Z,11.17
2017-08-18T04:22:06.935Z,9.53
2017-08-18T04:24:34.100Z,9.83
2017-08-18T04:29:33.796Z,9.90
2017-08-18T04:32:00.267Z,9.13
2017-08-18T04:34:26.792Z,9.03
2017-08-18T04:36:53.216Z,8.13
2017-08-18T04:39:19.643Z,11.00
2017-08-18T04:41:46.822Z,8.80
2017-08-18T04:44:13.216Z,9.00
2017-08-18T04:46:39.603Z,9.93
2017-08-18T04:49:05.986Z,9.57
2017-08-18T04:51:33.235Z,10.57
2017-08-18T04:53:59.667Z,9.90
2017-08-18T04:56:26.795Z,13.03
2017-08-18T04:58:53.294Z,10.20
2017-08-18T05:01:19.782Z,10.43
2017-08-18T05:03:46.297Z,9.37
2017-08-18T05:06:12.676Z,9.97
2017-08-18T05:08:39.107Z,9.43
2017-08-18T05:11:05.592Z,10.60
2017-08-18T05:13:32.081Z,10.33
2017-08-18T05:15:58.484Z,10.03
2017-08-18T05:18:25.636Z,11.50
2017-08-18T05:20:52.867Z,10.27
2017-08-18T05:23:19.278Z,11.10
2017-08-18T05:25:45.658Z,11.80
2017-08-18T05:28:12.868Z,10.87
2017-08-18T05:30:39.299Z,10.90
2017-08-18T05:33:05.692Z,14.53
2017-08-18T05:35:32.139Z,10.73
2017-08-18T05:37:58.520Z,13.00
2017-08-18T05:40:25.041Z,11.13
2017-08-18T05:42:51.430Z,11.03
2017-08-18T05:45:17.819Z,11.80
2017-08-18T05:47:44.230Z,11.57
2017-08-18T05:50:10.680Z,11.50
2017-08-18T05:52:37.663Z,11.10
2017-08-18T05:55:04.120Z,11.27
2017-08-18T05:57:30.688Z,11.43
2017-08-18T05:59:57.204Z,12.27
2017-08-18T06:02:23.601Z,12.37
2017-08-18T06:04:50.040Z,13.07
2017-08-18T06:07:16.613Z,13.20
2017-08-18T06:09:43.074Z,11.57
2017-08-18T06:12:09.564Z,12.27
2017-08-18T06:14:36.124Z,11.63
2017-08-18T06:17:03.291Z,11.60
2017-08-18T06:19:29.675Z,12.27
2017-08-18T06:21:56.083Z,11.87
2017-08-18T06:24:22.490Z,13.17
2017-08-18T06:26:48.899Z,10.60
2017-08-18T06:29:15.306Z,14.70
2017-08-18T06:31:41.744Z,15.00
2017-08-18T06:34:08.156Z,11.53
2017-08-18T06:36:34.564Z,11.47
2017-08-18T06:39:01.735Z,12.73
2017-08-18T06:41:28.219Z,12.80
2017-08-18T06:43:54.663Z,11.60
2017-08-18T06:46:21.872Z,13.60
2017-08-18T06:48:48.320Z,12.53
2017-08-18T06:51:14.787Z,13.70
2017-08-18T06:53:41.211Z,11.87
2017-08-18T06:56:07.603Z,12.07
2017-08-18T06:58:33.980Z,11.27
2017-08-18T07:01:00.400Z,13.67
2017-08-18T07:03:26.783Z,13.23
2017-08-18T07:05:53.160Z,11.50
2017-08-18T07:08:19.587Z,12.00
2017-08-18T07:10:46.044Z,12.73
2017-08-18T07:13:12.432Z,12.27
2017-08-18T07:15:38.815Z,13.23
2017-08-18T07:18:05.278Z,11.93
2017-08-18T07:20:31.724Z,12.37
2017-08-18T07:22:58.119Z,12.80
2017-08-18T07:25:25.287Z,12.97
2017-08-18T07:27:51.736Z,12.07
2017-08-18T07:30:18.207Z,11.77
2017-08-18T07:32:44.594Z,12.97
2017-08-18T07:35:11.024Z,11.70
2017-08-18T07:37:37.416Z,12.27
2017-08-18T07:40:03.916Z,14.87
2017-08-18T07:42:30.348Z,18.40
2017-08-18T07:44:56.819Z,12.13
2017-08-18T07:47:24.028Z,17.23
2017-08-18T07:49:50.511Z,12.47
2017-08-18T07:52:17.785Z,12.07
2017-08-18T07:54:44.599Z,13.37
2017-08-18T07:57:11.126Z,12.87
2017-08-18T07:59:37.646Z,12.40
2017-08-18T08:02:04.066Z,13.17
2017-08-18T08:04:30.447Z,12.37
2017-08-18T08:06:57.358Z,11.47
2017-08-18T08:09:23.892Z,13.23
2017-08-18T08:11:52.383Z,10.73
2017-08-18T08:14:18.836Z,14.30
2017-08-18T08:16:45.231Z,12.60
2017-08-18T08:19:11.653Z,12.57
2017-08-18T08:21:38.099Z,13.20
2017-08-18T08:24:04.479Z,11.40
2017-08-18T08:26:31.680Z,15.30
2017-08-18T08:28:58.382Z,12.50
2017-08-18T08:31:28.296Z,14.23
2017-08-18T08:33:54.691Z,12.77
2017-08-18T08:36:21.161Z,12.80
2017-08-18T08:38:47.584Z,12.43
2017-08-18T08:41:14.780Z,11.97
2017-08-18T08:43:41.163Z,15.03
2017-08-18T08:46:08.333Z,12.43
2017-08-18T08:48:34.727Z,11.47
2017-08-18T08:51:01.231Z,12.50
2017-08-18T08:53:27.627Z,12.13
2017-08-18T08:55:54.019Z,13.33
2017-08-18T08:58:20.478Z,13.07
2017-08-18T09:00:46.964Z,9.57
2017-08-18T09:03:13.375Z,10.60
2017-08-18T09:05:39.800Z,9.60
2017-08-18T09:08:06.246Z,10.33
2017-08-18T09:10:32.717Z,10.70
2017-08-18T09:12:59.104Z,9.87
2017-08-18T09:15:25.503Z,11.90
2017-08-18T09:17:51.923Z,10.23
2017-08-18T09:20:18.312Z,10.27
2017-08-18T09:22:44.696Z,10.43
2017-08-18T09:25:11.119Z,11.53
2017-08-18T09:27:37.544Z,10.43
2017-08-18T09:30:04.071Z,8.97
2017-08-18T09:32:30.431Z,9.50
2017-08-18T09:34:56.876Z,10.10
2017-08-18T09:37:23.317Z,9.90
2017-08-18T09:39:49.778Z,10.20
2017-08-18T09:42:16.199Z,9.70
2017-08-18T09:44:42.587Z,9.90
2017-08-18T09:47:09.008Z,9.50
2017-08-18T09:50:00.381Z,9.10
2017-08-18T09:52:44.511Z,10.43
2017-08-18T09:55:23.155Z,9.70
2017-08-18T09:58:01.858Z,10.30
2017-08-18T10:00:28.345Z,8.80
2017-08-18T10:02:54.743Z,10.47
2017-08-18T10:05:21.131Z,10.10
2017-08-18T10:07:47.544Z,10.10
2017-08-18T10:10:13.943Z,10.30
2017-08-18T10:12:40.323Z,12.90
2017-08-18T10:15:06.714Z,10.20
2017-08-18T10:17:33.106Z,10.20
2017-08-18T10:20:00.321Z,9.07
2017-08-18T10:22:26.804Z,9.70
2017-08-18T10:24:53.199Z,9.50
2017-08-18T10:27:19.583Z,8.40
2017-08-18T10:29:46.063Z,8.40
2017-08-18T10:32:12.443Z,9.43
2017-08-18T10:34:38.852Z,8.67
2017-08-18T10:37:05.259Z,9.23
2017-08-18T10:39:31.652Z,7.70
2017-08-18T10:41:58.032Z,7.13
2017-08-18T10:44:24.420Z,8.27
2017-08-18T10:46:50.832Z,7.77
2017-08-18T10:49:17.255Z,7.60
2017-08-18T10:51:43.703Z,8.43
2017-08-18T10:54:49.452Z,9.40
2017-08-18T10:57:15.875Z,9.73
2017-08-18T10:59:43.047Z,7.83
2017-08-18T11:02:09.474Z,8.47
2017-08-18T11:04:35.892Z,8.17
2017-08-18T11:07:02.363Z,9.47
2017-08-18T11:09:28.779Z,8.20
2017-08-18T11:11:55.212Z,8.33
2017-08-18T11:14:21.599Z,8.87
2017-08-18T11:16:48.753Z,9.53
2017-08-18T11:19:15.912Z,8.13
2017-08-18T11:21:43.116Z,7.90
2017-08-18T11:24:09.518Z,7.50
2017-08-18T11:26:35.898Z,8.20
2017-08-18T11:29:02.295Z,8.60
2017-08-18T11:31:28.732Z,9.30
2017-08-18T11:33:55.113Z,8.30
2017-08-18T11:36:21.574Z,8.57
2017-08-18T11:38:47.995Z,8.33
2017-08-18T11:41:15.136Z,9.70
2017-08-18T11:43:41.516Z,8.60
2017-08-18T11:46:07.923Z,7.70
2017-08-18T11:48:34.304Z,8.97
2017-08-18T11:51:00.689Z,7.53
2017-08-18T11:53:27.092Z,8.40
2017-08-18T11:55:53.475Z,9.37
2017-08-18T11:58:19.906Z,8.33
2017-08-18T12:00:46.308Z,9.23
2017-08-18T12:03:13.435Z,8.80
2017-08-18T12:05:40.619Z,8.70
2017-08-18T12:08:07.010Z,8.87
2017-08-18T12:10:33.411Z,8.27
2017-08-18T12:12:59.834Z,7.60
2017-08-18T12:15:26.203Z,8.13
2017-08-18T12:17:52.583Z,7.90
2017-08-18T12:20:18.999Z,11.20
2017-08-18T12:22:46.120Z,7.60
2017-08-18T12:25:12.540Z,7.77
2017-08-18T12:27:38.921Z,8.73
2017-08-18T12:30:05.324Z,9.47
2017-08-18T12:32:31.755Z,7.87
2017-08-18T12:34:58.138Z,8.03
2017-08-18T12:37:24.531Z,8.67
2017-08-18T12:39:50.951Z,8.93
2017-08-18T12:42:17.448Z,7.70
2017-08-18T12:44:43.904Z,8.30
2017-08-18T12:47:10.302Z,8.67
2017-08-18T12:49:36.691Z,8.77
2017-08-18T12:52:03.901Z,8.97
2017-08-18T12:54:30.301Z,7.60
2017-08-18T12:56:56.697Z,8.20
2017-08-18T12:59:23.152Z,7.30
2017-08-18T13:01:49.614Z,8.43
2017-08-18T13:04:16.001Z,7.80
2017-08-18T13:06:43.126Z,6.70
2017-08-18T13:09:09.584Z,5.83
2017-08-18T13:11:35.975Z,5.90
2017-08-18T13:14:02.400Z,6.60
2017-08-18T13:16:28.791Z,6.13
2017-08-18T13:18:55.174Z,7.13
2017-08-18T13:21:21.596Z,11.77
2017-08-18T13:23:47.983Z,7.47
2017-08-18T13:26:14.403Z,12.07
2017-08-18T13:28:40.779Z,7.87
2017-08-18T13:31:07.178Z,7.03
2017-08-18T13:33:34.313Z,6.87
2017-08-18T13:36:00.707Z,6.47
2017-08-18T13:38:27.134Z,6.07
2017-08-18T13:40:53.551Z,5.77
2017-08-18T13:43:19.984Z,6.83
2017-08-18T13:45:46.391Z,5.83
2017-08-18T13:48:12.827Z,6.83
2017-08-18T13:50:39.251Z,8.07
2017-08-18T13:53:05.699Z,7.57
2017-08-18T13:55:32.835Z,7.97
2017-08-18T13:57:59.379Z,7.40
2017-08-18T14:00:25.885Z,9.40
2017-08-18T14:02:52.328Z,8.27
2017-08-18T14:05:18.762Z,8.20
2017-08-18T14:07:45.331Z,7.93
2017-08-18T14:10:11.791Z,8.67
2017-08-18T14:12:38.294Z,8.20
2017-08-18T14:15:04.768Z,7.83
2017-08-18T14:17:31.262Z,6.63
2017-08-18T14:19:57.760Z,7.07
2017-08-18T14:22:24.265Z,7.20
2017-08-18T14:24:56.691Z,6.83
2017-08-18T14:27:29.135Z,6.80
2017-08-18T14:29:55.536Z,6.40
2017-08-18T14:32:21.947Z,6.17
2017-08-18T14:34:49.079Z,7.13
2017-08-18T14:37:16.191Z,8.07
2017-08-18T14:39:42.626Z,7.27
2017-08-18T14:42:09.008Z,9.30
2017-08-18T14:44:35.399Z,8.00
2017-08-18T14:47:01.794Z,6.40
2017-08-18T14:49:28.191Z,7.17
2017-08-18T14:51:54.595Z,7.67
2017-08-18T14:54:21.012Z,6.43
2017-08-18T14:56:47.423Z,8.00
2017-08-18T14:59:13.875Z,7.30
2017-08-18T15:01:40.318Z,6.50
2017-08-18T15:04:06.734Z,6.37
2017-08-18T15:06:33.149Z,8.43
2017-08-18T15:09:00.003Z,7.13
2017-08-18T15:11:26.536Z,6.87
2017-08-18T15:13:52.937Z,7.70
2017-08-18T15:16:20.077Z,7.10
2017-08-18T15:18:47.225Z,6.50
2017-08-18T15:21:13.616Z,8.70
2017-08-18T15:23:40.022Z,6.53
2017-08-18T15:26:06.438Z,6.73
2017-08-18T15:28:33.544Z,6.73
2017-08-18T15:30:59.942Z,6.90
2017-08-18T15:33:26.372Z,6.10
2017-08-18T15:35:52.748Z,6.63
2017-08-18T15:38:19.150Z,6.83
2017-08-18T15:40:45.530Z,6.23
2017-08-18T15:43:11.924Z,7.70
2017-08-18T15:45:38.294Z,6.93
2017-08-18T15:48:04.687Z,6.77
2017-08-18T15:50:31.091Z,5.03
2017-08-18T15:52:57.467Z,6.03
2017-08-18T15:55:23.903Z,6.10
2017-08-18T15:57:50.275Z,7.17
2017-08-18T16:00:17.423Z,6.20
2017-08-18T16:02:43.831Z,5.30
2017-08-18T16:05:10.211Z,6.73
2017-08-18T16:07:36.615Z,5.67
2017-08-18T16:10:03.747Z,6.00
2017-08-18T16:12:30.116Z,5.60
2017-08-18T16:14:56.519Z,5.30
2017-08-18T16:17:23.636Z,6.37
2017-08-18T16:19:50.027Z,6.10
2017-08-18T16:22:16.431Z,5.70
2017-08-18T16:24:42.840Z,5.73
2017-08-18T16:27:09.242Z,5.90
2017-08-18T16:29:35.624Z,6.90
2017-08-18T16:32:02.002Z,8.27
2017-08-18T16:34:28.430Z,5.90
2017-08-18T16:36:54.830Z,5.03
2017-08-18T16:39:22.003Z,5.50
2017-08-18T16:41:48.383Z,6.50
2017-08-18T16:44:14.760Z,6.43
2017-08-18T16:46:41.180Z,6.13
2017-08-18T16:49:08.287Z,7.90
2017-08-18T16:51:34.699Z,6.40
2017-08-18T16:54:01.083Z,4.83
2017-08-18T16:56:27.490Z,4.93
2017-08-18T16:58:53.903Z,5.53
2017-08-18T17:01:20.287Z,6.30
2017-08-18T17:03:47.403Z,10.20
2017-08-18T17:06:13.807Z,6.87
2017-08-18T17:08:40.199Z,5.40
2017-08-18T17:11:07.359Z,7.47
2017-08-18T17:13:34.475Z,7.90
2017-08-18T17:16:00.897Z,6.67
2017-08-18T17:18:27.278Z,6.30
2017-08-18T17:20:53.697Z,5.87
2017-08-18T17:23:20.814Z,5.87
2017-08-18T17:25:47.200Z,6.30
2017-08-18T17:28:13.607Z,6.13
2017-08-18T17:30:40.781Z,6.03
2017-08-18T17:33:07.163Z,6.10
2017-08-18T17:35:33.567Z,6.50
2017-08-18T17:37:59.965Z,7.83
2017-08-18T17:40:27.098Z,5.77
2017-08-18T17:42:53.455Z,6.53
2017-08-18T17:45:19.869Z,6.20
2017-08-18T17:47:46.987Z,8.50
2017-08-18T17:50:13.399Z,6.43
2017-08-18T17:52:39.815Z,6.50
2017-08-18T17:55:06.179Z,7.70
2017-08-18T17:57:32.587Z,8.03
2017-08-18T17:59:59.001Z,6.53
2017-08-18T18:02:25.417Z,8.60
2017-08-18T18:04:52.544Z,12.03
2017-08-18T18:07:19.536Z,6.30
2017-08-18T18:09:45.955Z,9.00
2017-08-18T18:12:12.388Z,8.53
2017-08-18T18:14:38.784Z,7.77
2017-08-18T18:17:05.187Z,6.20
2017-08-18T18:19:31.609Z,7.67
2017-08-18T18:21:57.983Z,9.07
2017-08-18T18:24:24.420Z,6.67
2017-08-18T18:26:51.708Z,7.50
2017-08-18T18:29:18.163Z,5.63
2017-08-18T18:31:44.555Z,7.17
2017-08-18T18:34:10.959Z,6.97
2017-08-18T18:36:37.356Z,6.23
2017-08-18T18:39:03.842Z,7.20
2017-08-18T18:41:31.011Z,6.97
2017-08-18T18:43:57.395Z,5.90
2017-08-18T18:46:23.807Z,11.60
2017-08-18T18:48:50.212Z,6.87
2017-08-18T18:51:16.663Z,6.97
2017-08-18T18:53:43.043Z,8.17
2017-08-18T18:56:09.430Z,8.10
2017-08-18T18:58:35.813Z,6.20
2017-08-18T19:01:02.234Z,6.67
2017-08-18T19:03:29.882Z,7.30
2017-08-18T19:05:56.445Z,9.90
2017-08-18T19:08:22.903Z,7.50
2017-08-18T19:10:49.304Z,10.37
2017-08-18T19:13:15.708Z,6.30
2017-08-18T19:15:42.063Z,6.50
2017-08-18T19:18:08.439Z,7.57
2017-08-18T19:20:34.844Z,9.70
2017-08-18T19:23:01.530Z,8.23
2017-08-18T19:25:28.517Z,7.97
2017-08-18T19:27:55.433Z,7.70
2017-08-18T19:30:23.090Z,5.70
2017-08-18T19:32:49.579Z,6.50
2017-08-18T19:35:17.042Z,8.13
2017-08-18T19:37:43.575Z,6.93
2017-08-18T19:40:10.012Z,7.93
2017-08-18T19:42:36.407Z,7.73
2017-08-18T19:45:02.799Z,9.23
2017-08-18T19:47:29.204Z,7.60
2017-08-18T19:49:56.315Z,8.70
2017-08-18T19:52:22.699Z,11.07
2017-08-18T19:54:49.092Z,9.97
2017-08-18T19:57:16.520Z,8.50
2017-08-18T19:59:43.699Z,7.93
2017-08-18T20:02:10.098Z,7.40
2017-08-18T20:04:36.553Z,7.60
2017-08-18T20:07:02.955Z,8.87
2017-08-18T20:09:29.380Z,8.23
2017-08-18T20:11:55.767Z,8.43
2017-08-18T20:14:22.232Z,11.13
2017-08-18T20:16:48.770Z,8.47
2017-08-18T20:19:15.142Z,7.50
2017-08-18T20:21:41.571Z,7.47
2017-08-18T20:24:07.989Z,8.33
2017-08-18T20:26:34.371Z,8.07
2017-08-18T20:29:01.564Z,6.87
2017-08-18T20:31:28.007Z,7.43
2017-08-18T20:33:54.467Z,8.30
2017-08-18T20:36:21.654Z,9.40
2017-08-18T20:38:48.059Z,7.50
2017-08-18T20:41:14.484Z,8.43
2017-08-18T20:43:41.023Z,6.57
2017-08-18T20:46:07.466Z,6.53
2017-08-18T20:48:34.670Z,6.97
2017-08-18T20:51:01.080Z,6.70
2017-08-18T20:53:27.463Z,7.03
2017-08-18T20:55:53.864Z,7.73
2017-08-18T20:58:20.288Z,6.93
2017-08-18T21:00:46.719Z,9.30
2017-08-18T21:03:13.130Z,6.60
2017-08-18T21:05:39.548Z,6.20
2017-08-18T21:08:05.950Z,8.60
2017-08-18T21:10:32.396Z,8.00
2017-08-18T21:12:58.828Z,7.57
2017-08-18T21:15:25.220Z,7.50
2017-08-18T21:17:51.631Z,7.97
2017-08-18T21:20:18.017Z,6.80
2017-08-18T21:22:44.403Z,6.63
2017-08-18T21:25:10.807Z,7.70
2017-08-18T21:27:37.174Z,6.83
2017-08-18T21:30:03.597Z,7.77
2017-08-18T21:32:30.000Z,7.10
2017-08-18T21:34:56.391Z,7.30
2017-08-18T21:37:22.771Z,6.60
2017-08-18T21:39:49.927Z,7.17
2017-08-18T21:42:17.051Z,7.60
2017-08-18T21:44:43.428Z,7.30
2017-08-18T21:47:10.635Z,6.77
2017-08-18T21:49:37.027Z,12.53
2017-08-18T21:52:03.432Z,8.90
2017-08-18T21:54:30.547Z,7.53
2017-08-18T21:56:56.944Z,6.37
2017-08-18T21:59:23.331Z,6.30
2017-08-18T22:01:50.467Z,8.67
2017-08-18T22:04:17.831Z,7.70
2017-08-18T22:06:44.206Z,9.73
2017-08-18T22:09:10.579Z,11.37
2017-08-18T22:11:37.770Z,8.07
2017-08-18T22:14:04.200Z,8.47
2017-08-18T22:16:30.601Z,8.10
2017-08-18T22:18:56.995Z,7.60
2017-08-18T22:21:23.403Z,7.90
2017-08-18T22:23:49.832Z,7.73
2017-08-18T22:26:16.238Z,11.73
2017-08-18T22:28:42.643Z,8.60
2017-08-18T22:31:09.040Z,8.30
2017-08-18T22:33:36.286Z,7.43
2017-08-18T22:36:02.707Z,8.00
2017-08-18T22:38:29.100Z,8.03
2017-08-18T22:40:55.527Z,8.33
2017-08-18T22:43:21.915Z,7.50
2017-08-18T22:45:48.312Z,7.27
2017-08-18T22:48:14.724Z,8.20
2017-08-18T22:50:41.120Z,7.27
2017-08-18T22:53:07.537Z,6.70
2017-08-18T22:55:33.930Z,7.47
2017-08-18T22:58:00.319Z,8.53
2017-08-18T23:00:26.771Z,8.53
2017-08-18T23:02:53.159Z,8.27
2017-08-18T23:05:20.356Z,8.00
2017-08-18T23:07:47.640Z,8.43
2017-08-18T23:10:14.557Z,7.27
2017-08-18T23:12:40.974Z,8.40
2017-08-18T23:15:07.398Z,8.33
2017-08-18T23:17:33.824Z,8.67
2017-08-18T23:20:00.200Z,10.93
2017-08-18T23:22:27.172Z,7.43
2017-08-18T23:24:54.320Z,7.83
2017-08-18T23:27:20.728Z,8.67
2017-08-18T23:29:47.100Z,8.37
2017-08-18T23:32:14.255Z,8.93
2017-08-18T23:34:40.659Z,7.53
2017-08-18T23:37:07.047Z,8.63
2017-08-18T23:39:33.455Z,8.43
2017-08-18T23:41:59.915Z,8.97
2017-08-18T23:44:26.298Z,9.90
2017-08-18T23:46:53.438Z,7.20
2017-08-18T23:49:19.803Z,8.97
2017-08-18T23:51:46.216Z,7.53
2017-08-18T23:54:13.356Z,8.47
2017-08-18T23:56:40.489Z,7.47
2017-08-18T23:59:06.879Z,9.60
